This is the latest recevied weather packets stored in our database for station/object DL6DJ-15. If no packets are shown the sender has not sent any weather packets the latest 10 day(s).
| Time | Temp. | Humidity | Pressure | Rain* | Wind** | Luminosity | Snow |
|---|---|---|---|---|---|---|---|
| 1777798317 | 28.89° C | 19% | 1017.4 hPa | - | - | - | - |
| 1777798017 | 28.33° C | 19% | 1017.4 hPa | - | - | - | - |
| 1777797716 | 28.89° C | 18% | 1017.4 hPa | - | - | - | - |
| 1777797416 | 29.44° C | 18% | 1017.4 hPa | - | - | - | - |
| 1777797115 | 28.89° C | 19% | 1017.4 hPa | - | - | - | - |
| 1777796815 | 28.33° C | 20% | 1017.5 hPa | - | - | - | - |
| 1777796515 | 27.22° C | 21% | 1017.5 hPa | - | - | - | - |
| 1777796214 | 27.78° C | 19% | 1017.5 hPa | - | - | - | - |
| 1777795914 | 26.67° C | 20% | 1017.6 hPa | - | - | - | - |
| 1777795613 | 26.11° C | 21% | 1017.6 hPa | - | - | - | - |
| 1777795313 | 27.22° C | 20% | 1017.6 hPa | - | - | - | - |
| 1777795013 | 27.22° C | 20% | 1017.6 hPa | - | - | - | - |
| 1777794712 | 26.67° C | 20% | 1017.6 hPa | - | - | - | - |
| 1777794411 | 26.11° C | 21% | 1017.7 hPa | - | - | - | - |
| 1777794111 | 26.11° C | 20% | 1017.6 hPa | - | - | - | - |
| 1777793811 | 26.11° C | 20% | 1017.6 hPa | - | - | - | - |
| 1777793510 | 25° C | 23% | 1017.5 hPa | - | - | - | - |
| 1777793209 | 24.44° C | 23% | 1017.6 hPa | - | - | - | - |
| 1777792910 | 25° C | 21% | 1017.6 hPa | - | - | - | - |
| 1777792609 | 26.11° C | 21% | 1017.7 hPa | - | - | - | - |
| 1777792309 | 27.22° C | 19% | 1017.6 hPa | - | - | - | - |
| 1777792008 | 27.22° C | 20% | 1017.6 hPa | - | - | - | - |
| 1777791708 | 27.22° C | 19% | 1017.7 hPa | - | - | - | - |
| 1777791407 | 27.22° C | 21% | 1017.6 hPa | - | - | - | - |
| 1777791107 | 26.67° C | 20% | 1017.7 hPa | - | - | - | - |
* Rain since midnight (hover to see other rain measurements)
** Current wind speed in m/s (hover to see current wind gust speed)